createdAt,value
2017-05-12T13:08:30.885Z,25.2
2017-05-12T13:08:39.904Z,25.2
2017-05-12T13:08:49.941Z,25.23
2017-05-12T13:08:59.922Z,25.19
2017-05-12T13:09:09.906Z,25.23
2017-05-12T13:09:19.925Z,25.23
2017-05-12T13:09:29.932Z,25.1
2017-05-12T13:09:39.963Z,25.13
2017-05-12T13:09:49.981Z,25.13
2017-05-12T13:09:59.982Z,25.19
2017-05-12T13:10:10.026Z,25.13
2017-05-12T13:10:35.495Z,25.12
2017-05-12T13:10:45.514Z,25.1
2017-05-12T13:10:55.529Z,25.16
2017-05-12T13:11:05.544Z,25.01
2017-05-12T13:11:15.586Z,25.08
2017-05-12T13:11:25.575Z,25.09
2017-05-12T13:11:35.599Z,25.05
2017-05-12T13:11:45.616Z,25.1
2017-05-12T13:11:55.612Z,25.1
2017-05-12T13:12:05.648Z,25.1
2017-05-12T13:12:15.656Z,25.12
2017-05-12T13:12:25.668Z,25.1
2017-05-12T13:12:35.657Z,25.12
2017-05-12T13:12:45.693Z,25.12
2017-05-12T13:12:55.704Z,25.13
2017-05-12T13:13:05.715Z,25.09
2017-05-12T13:13:15.724Z,25.1
2017-05-12T13:13:25.723Z,25.09
2017-05-12T13:13:35.767Z,25.1
2017-05-12T13:13:45.754Z,25.1
2017-05-12T13:13:55.784Z,25.09
2017-05-12T13:14:05.793Z,25.09
2017-05-12T13:14:15.814Z,25.08
2017-05-12T13:14:25.801Z,25.13
2017-05-12T13:14:35.814Z,25.05
2017-05-12T13:14:45.872Z,25.1
2017-05-12T13:14:55.843Z,25.1
2017-05-12T13:15:05.903Z,25.1
2017-05-12T13:15:15.907Z,25.04
2017-05-12T13:15:25.895Z,25.05
2017-05-12T13:15:35.922Z,25.05
2017-05-12T13:15:45.951Z,25.16
2017-05-12T13:15:55.915Z,25.13
2017-05-12T13:16:05.963Z,25.17
2017-05-12T13:16:15.985Z,25.12
2017-05-12T13:16:25.977Z,25.1
2017-05-12T13:16:36.003Z,25.13
2017-05-12T13:16:45.984Z,25.12
2017-05-12T13:16:56.033Z,25.1
2017-05-12T13:17:06.024Z,25.1
2017-05-12T13:17:16.046Z,25.1
2017-05-12T13:17:26.074Z,25.1
2017-05-12T13:17:36.082Z,25.09
2017-05-12T13:17:46.102Z,25.13
2017-05-12T13:17:56.114Z,25.08
2017-05-12T13:18:06.120Z,25.17
2017-05-12T13:18:16.104Z,25.1
2017-05-12T13:18:26.124Z,25.1
2017-05-12T13:18:36.131Z,25.13
2017-05-12T13:18:46.195Z,25.09
2017-05-12T13:18:56.201Z,25.13
2017-05-12T13:19:06.200Z,25.12
2017-05-12T13:19:16.228Z,25.09
2017-05-12T13:19:26.242Z,25.1
2017-05-12T13:19:36.244Z,25.05
2017-05-12T13:19:46.248Z,25.12
2017-05-12T13:19:56.242Z,25.13
2017-05-12T13:20:06.287Z,25.1
2017-05-12T13:20:16.328Z,25.1
2017-05-12T13:20:26.305Z,25.16
2017-05-12T13:20:36.325Z,25.1
2017-05-12T13:20:46.329Z,25.13
2017-05-12T13:20:56.340Z,25.1
2017-05-12T13:21:06.361Z,25.13
2017-05-12T13:21:16.382Z,25.1
2017-05-12T13:21:26.391Z,25.1
2017-05-12T13:21:36.418Z,25.09
2017-05-12T13:21:46.402Z,25.13
2017-05-12T13:21:56.414Z,25.02
2017-05-12T13:22:06.456Z,25
2017-05-12T13:22:16.478Z,25.04
2017-05-12T13:22:26.491Z,25.1
2017-05-12T13:22:36.494Z,25.1
2017-05-12T13:22:46.491Z,25.02
2017-05-12T13:22:56.540Z,25.17
2017-05-12T13:23:06.532Z,25.12
2017-05-12T13:23:16.559Z,25.12
2017-05-12T13:23:26.533Z,25.1
2017-05-12T13:23:36.555Z,25.12
2017-05-12T13:23:46.602Z,25.09
2017-05-12T13:23:56.602Z,25.12
2017-05-12T13:24:06.640Z,25.17
2017-05-12T13:24:16.604Z,25.15
2017-05-12T13:24:26.632Z,25.13
2017-05-12T13:24:36.714Z,25.16
2017-05-12T13:24:46.676Z,25.16
2017-05-12T13:24:56.671Z,25.13
2017-05-12T13:25:06.677Z,25.17
2017-05-12T13:25:16.713Z,25.12
2017-05-12T13:25:26.739Z,25.1
2017-05-12T13:25:36.730Z,25.13
2017-05-12T13:25:46.733Z,25.09
2017-05-12T13:25:56.756Z,25.1
2017-05-12T13:26:06.767Z,25.1
2017-05-12T13:26:16.776Z,25.13
2017-05-12T13:26:26.825Z,25.19
2017-05-12T13:26:36.798Z,25.15
2017-05-12T13:26:46.833Z,25.13
2017-05-12T13:26:56.841Z,25.13
2017-05-12T13:27:06.869Z,25.13
2017-05-12T13:27:16.892Z,25.2
2017-05-12T13:27:26.882Z,25.17
2017-05-12T13:27:36.909Z,25.16
2017-05-12T13:27:46.912Z,25.25
2017-05-12T13:27:56.907Z,25.2
2017-05-12T13:28:06.948Z,25.09
2017-05-12T13:28:16.965Z,25.13
2017-05-12T13:28:26.988Z,25.09
2017-05-12T13:28:36.966Z,25.15
2017-05-12T13:28:47.004Z,25.22
2017-05-12T13:28:57.012Z,25.19
2017-05-12T13:29:07.045Z,25.12
2017-05-12T13:29:17.024Z,25.15
2017-05-12T13:29:27.051Z,25.19
2017-05-12T13:29:37.047Z,25.17
2017-05-12T13:29:47.091Z,25.16
2017-05-12T13:29:57.101Z,25.2
2017-05-12T13:30:07.110Z,25.15
2017-05-12T13:30:17.141Z,25.19
2017-05-12T13:30:27.122Z,25.2
2017-05-12T13:30:37.151Z,25.23
2017-05-12T13:30:47.164Z,25.19
2017-05-12T13:30:57.201Z,25.1
2017-05-12T13:31:07.202Z,25.15
2017-05-12T13:31:17.201Z,25.16
2017-05-12T13:31:27.225Z,25.2
2017-05-12T13:31:37.243Z,25.2
2017-05-12T13:31:47.234Z,25.22
2017-05-12T13:31:57.246Z,25.16
2017-05-12T13:32:07.285Z,25.15
2017-05-12T13:32:17.294Z,25.16
2017-05-12T13:32:27.294Z,25.15
2017-05-12T13:32:37.311Z,25.15
2017-05-12T13:32:47.327Z,25.15
2017-05-12T13:32:57.357Z,25.23
2017-05-12T13:33:07.341Z,25.23
2017-05-12T13:33:17.383Z,25.13
2017-05-12T13:33:27.391Z,25.2
2017-05-12T13:33:37.392Z,25.19
2017-05-12T13:33:47.393Z,25.1
2017-05-12T13:33:57.422Z,25.16
2017-05-12T13:34:07.451Z,25.23
2017-05-12T13:34:17.437Z,25.15
2017-05-12T13:34:27.454Z,25.16
2017-05-12T13:34:37.483Z,25.15
2017-05-12T13:34:47.504Z,25.25
2017-05-12T13:34:57.547Z,25.16
2017-05-12T13:35:07.525Z,25.13
2017-05-12T13:35:17.541Z,25.16
2017-05-12T13:35:27.555Z,25.2
2017-05-12T13:35:37.577Z,25.22
2017-05-12T13:35:47.602Z,25.19
2017-05-12T13:35:57.597Z,25.16
2017-05-12T13:36:07.600Z,25.16
2017-05-12T13:36:17.609Z,25.22
2017-05-12T13:36:27.665Z,25.19
2017-05-12T13:36:37.664Z,25.16
2017-05-12T13:36:47.690Z,25.2
2017-05-12T13:36:57.693Z,25.16
2017-05-12T13:37:07.698Z,25.22
2017-05-12T13:37:17.723Z,25.23
2017-05-12T13:37:27.701Z,25.19
2017-05-12T13:37:37.764Z,25.22
2017-05-12T13:37:47.740Z,25.17
2017-05-12T13:37:57.772Z,25.15
2017-05-12T13:38:07.764Z,25.2
2017-05-12T13:38:17.810Z,25.22
2017-05-12T13:38:27.825Z,25.22
2017-05-12T13:38:37.814Z,25.22
2017-05-12T13:38:47.820Z,25.2
2017-05-12T13:38:57.867Z,25.17
2017-05-12T13:39:07.884Z,25.17
2017-05-12T13:39:17.865Z,25.15
2017-05-12T13:39:27.891Z,25.16
2017-05-12T13:39:37.908Z,25.22
2017-05-12T13:39:47.891Z,25.19
2017-05-12T13:39:57.973Z,25.23
2017-05-12T13:40:07.966Z,25.27
2017-05-12T13:40:17.953Z,25.22
2017-05-12T13:40:27.975Z,25.23
2017-05-12T13:40:37.994Z,25.23
2017-05-12T13:40:48.006Z,25.2
2017-05-12T13:40:58.030Z,25.22
2017-05-12T13:41:08.054Z,25.3
2017-05-12T13:41:18.060Z,25.23
2017-05-12T13:41:28.074Z,25.22
2017-05-12T13:41:38.088Z,25.25
2017-05-12T13:41:48.102Z,25.25
2017-05-12T13:41:58.093Z,25.25
2017-05-12T13:42:08.123Z,25.23
2017-05-12T13:42:18.151Z,25.27
2017-05-12T13:42:28.184Z,25.25
2017-05-12T13:42:38.157Z,25.22
2017-05-12T13:42:48.176Z,25.22
2017-05-12T13:42:58.213Z,25.19
2017-05-12T13:43:08.194Z,25.23
2017-05-12T13:43:18.229Z,25.23
2017-05-12T13:43:28.253Z,25.2
2017-05-12T13:43:38.241Z,25.3
2017-05-12T13:43:48.290Z,25.22
2017-05-12T13:43:58.329Z,25.25
2017-05-12T13:44:08.293Z,25.27
2017-05-12T13:44:18.373Z,25.22
2017-05-12T13:44:28.309Z,25.28
2017-05-12T13:44:38.316Z,25.25
2017-05-12T13:44:48.357Z,25.34
2017-05-12T13:44:58.361Z,25.28
2017-05-12T13:45:08.401Z,25.27
2017-05-12T13:45:18.381Z,25.23
2017-05-12T13:45:28.363Z,25.25
2017-05-12T13:45:38.393Z,25.23
2017-05-12T13:45:48.400Z,25.28
2017-05-12T13:45:58.413Z,25.27
2017-05-12T13:46:08.444Z,25.27
2017-05-12T13:46:18.435Z,25.22
2017-05-12T13:46:28.465Z,25.27
2017-05-12T13:46:38.480Z,25.23
2017-05-12T13:46:48.518Z,25.31
2017-05-12T13:46:58.503Z,25.27
2017-05-12T13:47:08.513Z,25.28
2017-05-12T13:47:18.562Z,25.31
2017-05-12T13:47:28.532Z,25.38
2017-05-12T13:47:38.553Z,25.27
2017-05-12T13:47:48.599Z,25.31
2017-05-12T13:47:58.572Z,25.31
2017-05-12T13:48:08.613Z,25.28
2017-05-12T13:48:18.652Z,25.31
2017-05-12T13:48:28.648Z,25.3
2017-05-12T13:48:38.652Z,25.31
2017-05-12T13:48:48.690Z,25.28
2017-05-12T13:48:58.681Z,25.32
2017-05-12T13:49:08.672Z,25.34
2017-05-12T13:49:18.722Z,25.27
2017-05-12T13:49:28.727Z,25.34
2017-05-12T13:49:38.731Z,25.25
2017-05-12T13:49:48.744Z,25.31
2017-05-12T13:49:58.784Z,25.32
2017-05-12T13:50:08.788Z,25.25
2017-05-12T13:50:18.772Z,25.23
2017-05-12T13:50:28.790Z,25.32
2017-05-12T13:50:38.803Z,25.28
2017-05-12T13:50:48.821Z,25.23
2017-05-12T13:50:58.823Z,25.35
2017-05-12T13:51:08.853Z,25.25
2017-05-12T13:51:18.881Z,25.35
2017-05-12T13:51:28.894Z,25.27
2017-05-12T13:51:38.882Z,25.25
2017-05-12T13:51:48.921Z,25.31
2017-05-12T13:51:58.922Z,25.31
2017-05-12T13:52:08.922Z,25.3
2017-05-12T13:52:18.951Z,25.25
2017-05-12T13:52:28.952Z,25.32
2017-05-12T13:52:38.964Z,25.38
2017-05-12T13:52:48.986Z,25.32
2017-05-12T13:52:59.003Z,25.27
2017-05-12T13:53:09.021Z,25.32
2017-05-12T13:53:19.032Z,25.25
2017-05-12T13:53:29.061Z,25.35
2017-05-12T13:53:39.052Z,25.32
2017-05-12T13:53:49.091Z,25.32
2017-05-12T13:53:59.103Z,25.34
2017-05-12T13:54:09.111Z,25.32
2017-05-12T13:54:19.113Z,25.31
2017-05-12T13:54:29.141Z,25.27
2017-05-12T13:54:39.165Z,25.32
2017-05-12T13:54:49.151Z,25.35
2017-05-12T13:54:59.177Z,25.23
2017-05-12T13:55:09.171Z,25.4
2017-05-12T13:55:19.201Z,25.3
2017-05-12T13:55:29.221Z,25.35
2017-05-12T13:55:39.267Z,25.35
2017-05-12T13:55:49.261Z,25.34
2017-05-12T13:55:59.300Z,25.34
2017-05-12T13:56:09.330Z,25.31
2017-05-12T13:56:19.292Z,25.3
2017-05-12T13:56:29.339Z,25.34
2017-05-12T13:56:39.355Z,25.32
2017-05-12T13:56:49.350Z,25.34
2017-05-12T13:56:59.361Z,25.35
2017-05-12T13:57:09.422Z,25.34
2017-05-12T13:57:19.415Z,25.31
2017-05-12T13:57:29.398Z,25.28
2017-05-12T13:57:39.420Z,25.3
2017-05-12T13:57:49.451Z,25.34
2017-05-12T13:57:59.465Z,25.38
2017-05-12T13:58:09.479Z,25.31
2017-05-12T13:58:19.476Z,25.31
2017-05-12T13:58:29.506Z,25.27
2017-05-12T13:58:39.520Z,25.34
2017-05-12T13:58:49.553Z,25.28
2017-05-12T13:58:59.517Z,25.27
2017-05-12T13:59:09.531Z,25.31
2017-05-12T13:59:19.571Z,25.38
2017-05-12T13:59:29.584Z,25.34
2017-05-12T13:59:39.570Z,25.31
2017-05-12T13:59:49.617Z,25.22
2017-05-12T13:59:59.615Z,25.27
2017-05-12T14:00:09.635Z,25.27
2017-05-12T14:00:19.641Z,25.25
2017-05-12T14:00:29.662Z,25.32
2017-05-12T14:00:39.670Z,25.23
2017-05-12T14:00:49.693Z,25.25
2017-05-12T14:00:59.713Z,25.3
2017-05-12T14:01:09.741Z,25.34
2017-05-12T14:01:19.714Z,25.31
2017-05-12T14:01:29.732Z,25.38
2017-05-12T14:01:39.771Z,25.35
2017-05-12T14:01:49.770Z,25.31
2017-05-12T14:01:59.801Z,25.25
2017-05-12T14:02:09.803Z,25.27
2017-05-12T14:02:19.792Z,25.32
2017-05-12T14:02:29.847Z,25.38
2017-05-12T14:02:39.868Z,25.32
2017-05-12T14:02:49.870Z,25.31
2017-05-12T14:02:59.863Z,25.31
2017-05-12T14:03:09.873Z,25.28
2017-05-12T14:03:19.894Z,25.25
2017-05-12T14:03:29.887Z,25.3
2017-05-12T14:03:39.921Z,25.34
2017-05-12T14:03:49.964Z,25.25
2017-05-12T14:03:59.941Z,25.32
2017-05-12T14:04:09.963Z,25.34
2017-05-12T14:04:19.970Z,25.28
2017-05-12T14:04:30.010Z,25.28
2017-05-12T14:04:40.029Z,25.34
2017-05-12T14:04:50.032Z,25.34
2017-05-12T14:05:00.060Z,25.3
2017-05-12T14:05:10.033Z,25.35
2017-05-12T14:05:20.052Z,25.31
2017-05-12T14:05:30.086Z,25.38
2017-05-12T14:05:40.094Z,25.35
2017-05-12T14:05:50.103Z,25.32
2017-05-12T14:06:00.113Z,25.3
2017-05-12T14:06:10.135Z,25.35
2017-05-12T14:06:20.141Z,25.3
2017-05-12T14:06:30.169Z,25.3
2017-05-12T14:06:40.184Z,25.35
2017-05-12T14:06:50.197Z,25.31
2017-05-12T14:07:00.192Z,25.31
2017-05-12T14:07:10.230Z,25.34
2017-05-12T14:07:20.233Z,25.38
2017-05-12T14:07:30.263Z,25.35
2017-05-12T14:07:40.242Z,25.3
2017-05-12T14:07:50.241Z,25.35
2017-05-12T14:08:00.282Z,25.35
2017-05-12T14:08:10.315Z,25.35
2017-05-12T14:08:20.315Z,25.34
2017-05-12T14:08:30.313Z,25.34
2017-05-12T14:08:40.351Z,25.34
2017-05-12T14:08:50.361Z,25.31
2017-05-12T14:09:00.343Z,25.31
2017-05-12T14:09:10.382Z,25.35
2017-05-12T14:09:20.375Z,25.31
2017-05-12T14:09:30.393Z,25.31
2017-05-12T14:09:40.411Z,25.35
2017-05-12T14:09:50.447Z,25.35
2017-05-12T14:10:00.443Z,25.28
2017-05-12T14:10:10.475Z,25.28
2017-05-12T14:10:20.501Z,25.25
2017-05-12T14:10:30.475Z,25.32
2017-05-12T14:10:40.494Z,25.28
2017-05-12T14:10:50.532Z,25.4
2017-05-12T14:11:00.522Z,25.34
2017-05-12T14:11:10.562Z,25.31
2017-05-12T14:11:20.590Z,25.37
2017-05-12T14:11:30.592Z,25.28
2017-05-12T14:11:40.573Z,25.38
2017-05-12T14:11:50.618Z,25.34
2017-05-12T14:12:00.649Z,25.38
2017-05-12T14:12:10.618Z,25.32
2017-05-12T14:12:20.663Z,25.34
2017-05-12T14:12:30.677Z,25.4
2017-05-12T14:12:40.673Z,25.45
2017-05-12T14:12:50.698Z,25.37
2017-05-12T14:13:00.693Z,25.37
2017-05-12T14:13:10.716Z,25.32
2017-05-12T14:13:20.712Z,25.3
2017-05-12T14:13:30.766Z,25.38
2017-05-12T14:13:40.743Z,25.34
2017-05-12T14:13:50.789Z,25.32
2017-05-12T14:14:00.780Z,25.31
2017-05-12T14:14:10.805Z,25.31
2017-05-12T14:14:20.805Z,25.3
2017-05-12T14:14:30.858Z,25.34
2017-05-12T14:14:40.840Z,25.4
2017-05-12T14:14:50.857Z,25.34
2017-05-12T14:15:00.875Z,25.32
2017-05-12T14:15:10.891Z,25.35
2017-05-12T14:15:20.895Z,25.35
2017-05-12T14:15:30.961Z,25.38
2017-05-12T14:15:40.915Z,25.34
2017-05-12T14:15:50.943Z,25.34
2017-05-12T14:16:00.955Z,25.3
2017-05-12T14:16:10.992Z,25.41
2017-05-12T14:16:20.976Z,25.4
2017-05-12T14:16:30.981Z,25.3
2017-05-12T14:16:41.006Z,25.38
2017-05-12T14:16:51.016Z,25.32
2017-05-12T14:17:01.071Z,25.4
2017-05-12T14:17:11.051Z,25.38
2017-05-12T14:17:21.073Z,25.34
2017-05-12T14:17:31.105Z,25.34
2017-05-12T14:17:41.092Z,25.38
2017-05-12T14:17:51.082Z,25.38
2017-05-12T14:18:01.116Z,25.31
2017-05-12T14:18:11.149Z,25.32
2017-05-12T14:18:21.154Z,25.4
2017-05-12T14:18:31.163Z,25.38
2017-05-12T14:18:41.152Z,25.4
2017-05-12T14:18:51.202Z,25.38
2017-05-12T14:19:01.213Z,25.4
2017-05-12T14:19:11.212Z,25.37
2017-05-12T14:19:21.222Z,25.37
2017-05-12T14:19:31.233Z,25.4
2017-05-12T14:19:41.283Z,25.32
2017-05-12T14:19:51.266Z,25.37
2017-05-12T14:20:01.273Z,25.32
2017-05-12T14:20:11.300Z,25.34
2017-05-12T14:20:21.298Z,25.41
2017-05-12T14:20:31.327Z,25.31
2017-05-12T14:20:41.347Z,25.3
2017-05-12T14:20:51.374Z,25.35
2017-05-12T14:21:01.355Z,25.32
2017-05-12T14:21:11.383Z,25.28
2017-05-12T14:21:21.394Z,25.38
2017-05-12T14:21:31.427Z,25.3
2017-05-12T14:21:41.440Z,25.34
2017-05-12T14:21:51.452Z,25.3
2017-05-12T14:22:01.445Z,25.31
2017-05-12T14:22:11.501Z,25.34
2017-05-12T14:22:21.474Z,25.34
2017-05-12T14:22:31.506Z,25.34
2017-05-12T14:22:41.505Z,25.34
2017-05-12T14:22:51.524Z,25.4
2017-05-12T14:23:01.562Z,25.34
2017-05-12T14:23:11.534Z,25.32
2017-05-12T14:23:21.557Z,25.4
2017-05-12T14:23:31.592Z,25.37
2017-05-12T14:23:41.601Z,25.32
2017-05-12T14:23:51.618Z,25.4
2017-05-12T14:24:01.637Z,25.31
2017-05-12T14:24:11.631Z,25.31
2017-05-12T14:24:21.633Z,25.38
2017-05-12T14:24:31.656Z,25.38
2017-05-12T14:24:41.686Z,25.4
2017-05-12T14:24:51.697Z,25.28
2017-05-12T14:25:01.693Z,25.4
2017-05-12T14:25:11.738Z,25.38
2017-05-12T14:25:21.745Z,25.37
2017-05-12T14:25:31.744Z,25.35
2017-05-12T14:25:41.757Z,25.3
2017-05-12T14:25:51.744Z,25.35
2017-05-12T14:26:01.778Z,25.27
2017-05-12T14:26:11.793Z,25.35
2017-05-12T14:26:21.898Z,25.35
2017-05-12T14:26:31.813Z,25.3
2017-05-12T14:26:41.806Z,25.34
2017-05-12T14:26:51.891Z,25.4
2017-05-12T14:27:01.903Z,25.38
2017-05-12T14:27:11.920Z,25.32
2017-05-12T14:27:21.920Z,25.41
2017-05-12T14:27:31.947Z,25.3
2017-05-12T14:27:41.972Z,25.28
2017-05-12T14:27:51.988Z,25.38
2017-05-12T14:28:02.008Z,25.34
2017-05-12T14:28:11.966Z,25.4
2017-05-12T14:28:22.007Z,25.35
2017-05-12T14:28:31.993Z,25.32
2017-05-12T14:28:42.024Z,25.31
2017-05-12T14:28:52.023Z,25.35
2017-05-12T14:29:02.033Z,25.35
2017-05-12T14:29:12.033Z,25.34
2017-05-12T14:29:22.076Z,25.35
2017-05-12T14:29:32.093Z,25.4
2017-05-12T14:29:42.075Z,25.31
2017-05-12T14:29:52.132Z,25.38
2017-05-12T14:30:02.117Z,25.34
2017-05-12T14:30:12.187Z,25.3
2017-05-12T14:30:22.167Z,25.38
2017-05-12T14:30:32.164Z,25.34
2017-05-12T14:30:42.192Z,25.32
2017-05-12T14:30:52.181Z,25.38
2017-05-12T14:31:02.188Z,25.31
2017-05-12T14:31:12.202Z,25.31
2017-05-12T14:31:22.214Z,25.32
2017-05-12T14:31:32.245Z,25.3
2017-05-12T14:31:42.261Z,25.35
2017-05-12T14:31:52.254Z,25.31
2017-05-12T14:32:02.312Z,25.37
2017-05-12T14:32:12.300Z,25.3
2017-05-12T14:32:22.325Z,25.4
2017-05-12T14:32:32.314Z,25.37
2017-05-12T14:32:42.310Z,25.35
2017-05-12T14:32:52.364Z,25.38
2017-05-12T14:33:02.355Z,25.38
2017-05-12T14:33:12.386Z,25.35
2017-05-12T14:33:22.387Z,25.41
2017-05-12T14:33:32.415Z,25.34
2017-05-12T14:33:42.432Z,25.37
2017-05-12T14:33:52.434Z,25.34
2017-05-12T14:34:02.461Z,25.32
2017-05-12T14:34:12.463Z,25.38
2017-05-12T14:34:22.508Z,25.34
2017-05-12T14:34:32.516Z,25.34
2017-05-12T14:34:42.519Z,25.32
2017-05-12T14:34:52.551Z,25.31
2017-05-12T14:35:02.660Z,25.37
2017-05-12T14:35:12.526Z,25.37
2017-05-12T14:35:22.561Z,25.38
2017-05-12T14:35:32.606Z,25.42
2017-05-12T14:35:42.601Z,25.41
2017-05-12T14:35:52.594Z,25.35
2017-05-12T14:36:02.623Z,25.32
2017-05-12T14:36:12.635Z,25.32
2017-05-12T14:36:22.647Z,25.34
2017-05-12T14:36:32.651Z,25.37
2017-05-12T14:36:42.678Z,25.34
2017-05-12T14:36:52.696Z,25.34
2017-05-12T14:37:02.704Z,25.32
2017-05-12T14:37:12.728Z,25.32
2017-05-12T14:37:22.716Z,25.3
2017-05-12T14:37:32.751Z,25.32
2017-05-12T14:37:42.762Z,25.34
2017-05-12T14:37:52.781Z,25.32
2017-05-12T14:38:02.772Z,25.32
2017-05-12T14:38:12.804Z,25.38
2017-05-12T14:38:22.827Z,25.45
2017-05-12T14:38:32.813Z,25.38
2017-05-12T14:38:42.870Z,25.38
2017-05-12T14:38:52.872Z,25.31
2017-05-12T14:39:02.856Z,25.32
2017-05-12T14:39:12.981Z,25.38
2017-05-12T14:39:22.924Z,25.34
2017-05-12T14:39:32.907Z,25.38
2017-05-12T14:39:42.928Z,25.38
2017-05-12T14:39:52.956Z,25.31
2017-05-12T14:40:02.949Z,25.3
2017-05-12T14:40:12.982Z,25.3
2017-05-12T14:40:22.981Z,25.34
2017-05-12T14:40:33.001Z,25.32
2017-05-12T14:40:42.987Z,25.34
2017-05-12T14:40:52.996Z,25.32
2017-05-12T14:41:03.036Z,25.38
2017-05-12T14:41:13.054Z,25.37
2017-05-12T14:41:23.083Z,25.32
2017-05-12T14:41:33.078Z,25.37
2017-05-12T14:41:43.144Z,25.35
2017-05-12T14:41:53.099Z,25.41
2017-05-12T14:42:03.094Z,25.41
2017-05-12T14:42:13.152Z,25.37
2017-05-12T14:42:23.134Z,25.32
2017-05-12T14:42:33.144Z,25.37
2017-05-12T14:42:43.189Z,25.34
2017-05-12T14:42:53.192Z,25.32
2017-05-12T14:43:03.212Z,25.4
2017-05-12T14:43:13.228Z,25.32
2017-05-12T14:43:23.267Z,25.3
2017-05-12T14:43:33.230Z,25.31
2017-05-12T14:43:43.327Z,25.31
2017-05-12T14:43:53.302Z,25.37
2017-05-12T14:44:03.262Z,25.38
2017-05-12T14:44:13.328Z,25.3
2017-05-12T14:44:23.326Z,25.37
2017-05-12T14:44:33.315Z,25.32
2017-05-12T14:44:43.358Z,25.37
2017-05-12T14:44:53.326Z,25.34
2017-05-12T14:45:03.405Z,25.45
2017-05-12T14:45:13.374Z,25.35
2017-05-12T14:45:23.388Z,25.35
2017-05-12T14:45:33.434Z,25.34
2017-05-12T14:45:43.433Z,25.27
2017-05-12T14:45:53.403Z,25.34
2017-05-12T14:46:03.472Z,25.32
2017-05-12T14:46:13.450Z,25.34
2017-05-12T14:46:23.520Z,25.25
2017-05-12T14:46:33.505Z,25.34
2017-05-12T14:46:43.496Z,25.35
2017-05-12T14:46:53.527Z,25.31
2017-05-12T14:47:03.526Z,25.34
2017-05-12T14:47:13.549Z,25.32
2017-05-12T14:47:23.565Z,25.4
2017-05-12T14:47:33.583Z,25.28
2017-05-12T14:47:43.602Z,25.31
2017-05-12T14:47:53.600Z,25.3
2017-05-12T14:48:03.605Z,25.4
2017-05-12T14:48:13.631Z,25.35
2017-05-12T14:48:23.621Z,25.3
2017-05-12T14:48:33.686Z,25.25
2017-05-12T14:48:43.675Z,25.32
2017-05-12T14:48:53.705Z,25.34
2017-05-12T14:49:03.719Z,25.25
2017-05-12T14:49:13.717Z,25.31
2017-05-12T14:49:23.754Z,25.32
2017-05-12T14:49:33.753Z,25.27
2017-05-12T14:49:43.772Z,25.27
2017-05-12T14:49:53.809Z,25.27
2017-05-12T14:50:03.908Z,25.28
2017-05-12T14:50:13.801Z,25.34
2017-05-12T14:50:23.850Z,25.38
2017-05-12T14:50:33.831Z,25.38
2017-05-12T14:50:43.856Z,25.4
2017-05-12T14:50:53.865Z,25.38
2017-05-12T14:51:03.865Z,25.35
2017-05-12T14:51:13.878Z,25.32
2017-05-12T14:51:23.900Z,25.34
2017-05-12T14:51:33.924Z,25.32
2017-05-12T14:51:43.905Z,25.32
2017-05-12T14:51:53.964Z,25.32
2017-05-12T14:52:03.959Z,25.38
2017-05-12T14:52:13.959Z,25.38
2017-05-12T14:52:23.981Z,25.32
2017-05-12T14:52:33.982Z,25.32
2017-05-12T14:52:44.025Z,25.37
2017-05-12T14:52:54.012Z,25.32
2017-05-12T14:53:04.066Z,25.3
2017-05-12T14:53:14.082Z,25.41
2017-05-12T14:53:24.074Z,25.34
2017-05-12T14:53:34.075Z,25.4
2017-05-12T14:53:44.081Z,25.3
2017-05-12T14:53:54.102Z,25.34
2017-05-12T14:54:04.112Z,25.4
2017-05-12T14:54:14.149Z,25.32
2017-05-12T14:54:24.148Z,25.32
2017-05-12T14:54:34.158Z,25.32
2017-05-12T14:54:44.172Z,25.34
2017-05-12T14:54:54.204Z,25.32
2017-05-12T14:55:04.226Z,25.4
2017-05-12T14:55:14.186Z,25.32
2017-05-12T14:55:24.253Z,25.32
2017-05-12T14:55:34.248Z,25.31
2017-05-12T14:55:44.273Z,25.41
2017-05-12T14:55:54.279Z,25.34
2017-05-12T14:56:04.275Z,25.32
2017-05-12T14:56:14.303Z,25.4
2017-05-12T14:56:24.323Z,25.32
2017-05-12T14:56:34.345Z,25.32
2017-05-12T14:56:44.351Z,25.38
2017-05-12T14:56:54.378Z,25.37
2017-05-12T14:57:04.399Z,25.34
2017-05-12T14:57:14.391Z,25.34
2017-05-12T14:57:24.400Z,25.35
2017-05-12T14:57:34.421Z,25.3
2017-05-12T14:57:44.419Z,25.31
2017-05-12T14:57:54.441Z,25.32
2017-05-12T14:58:04.458Z,25.35
2017-05-12T14:58:14.486Z,25.34
2017-05-12T14:58:24.474Z,25.31
2017-05-12T14:58:34.493Z,25.31
2017-05-12T14:58:44.512Z,25.34
2017-05-12T14:58:54.511Z,25.31
2017-05-12T14:59:04.534Z,25.32
2017-05-12T14:59:14.574Z,25.32
2017-05-12T14:59:24.574Z,25.4
2017-05-12T14:59:34.582Z,25.32
2017-05-12T14:59:44.598Z,25.38
2017-05-12T14:59:54.632Z,25.31
2017-05-12T15:00:04.837Z,25.32
2017-05-12T15:00:14.652Z,25.4
2017-05-12T15:00:24.664Z,25.34
2017-05-12T15:00:34.675Z,25.37
2017-05-12T15:00:44.680Z,25.41
2017-05-12T15:00:54.712Z,25.4
2017-05-12T15:01:04.707Z,25.31
2017-05-12T15:01:14.720Z,25.32
2017-05-12T15:01:24.754Z,25.32
2017-05-12T15:01:34.752Z,25.32
2017-05-12T15:01:44.753Z,25.32
2017-05-12T15:01:54.764Z,25.4
2017-05-12T15:02:04.800Z,25.35
2017-05-12T15:02:14.815Z,25.34
2017-05-12T15:02:24.831Z,25.35
2017-05-12T15:02:34.836Z,25.35
2017-05-12T15:02:44.856Z,25.32
2017-05-12T15:02:54.890Z,25.4
2017-05-12T15:03:04.871Z,25.4
2017-05-12T15:03:14.863Z,25.41
2017-05-12T15:03:24.893Z,25.41
2017-05-12T15:03:34.924Z,25.34
2017-05-12T15:03:44.951Z,25.35
2017-05-12T15:03:54.952Z,25.35
2017-05-12T15:04:04.955Z,25.41
2017-05-12T15:04:14.987Z,25.32
2017-05-12T15:04:24.981Z,25.32
2017-05-12T15:04:34.983Z,25.31
2017-05-12T15:04:45.037Z,25.35
2017-05-12T15:04:55.019Z,25.28
2017-05-12T15:05:05.042Z,25.32
2017-05-12T15:05:15.054Z,25.38
2017-05-12T15:05:25.093Z,25.34
2017-05-12T15:05:35.088Z,25.4
2017-05-12T15:05:45.094Z,25.32
2017-05-12T15:05:55.115Z,25.37
2017-05-12T15:06:05.112Z,25.38
2017-05-12T15:06:15.138Z,25.3
2017-05-12T15:06:25.154Z,25.32
2017-05-12T15:06:35.182Z,25.41
2017-05-12T15:06:45.172Z,25.35
2017-05-12T15:06:55.209Z,25.38
2017-05-12T15:07:05.245Z,25.32
2017-05-12T15:07:15.224Z,25.35
2017-05-12T15:07:25.253Z,25.31
2017-05-12T15:07:35.263Z,25.38
2017-05-12T15:07:45.278Z,25.38
2017-05-12T15:07:55.305Z,25.42
2017-05-12T15:08:05.313Z,25.38
2017-05-12T15:08:15.295Z,25.37
2017-05-12T15:08:25.325Z,25.38
2017-05-12T15:08:35.338Z,25.34
2017-05-12T15:08:45.419Z,25.35
2017-05-12T15:08:55.391Z,25.38
2017-05-12T15:09:05.382Z,25.35
2017-05-12T15:09:15.413Z,25.3
2017-05-12T15:09:25.450Z,25.41
2017-05-12T15:09:35.438Z,25.32
2017-05-12T15:09:45.438Z,25.32
2017-05-12T15:09:55.499Z,25.34
2017-05-12T15:10:05.467Z,25.35
2017-05-12T15:10:15.475Z,25.31
2017-05-12T15:10:25.509Z,25.37
2017-05-12T15:10:35.497Z,25.34
2017-05-12T15:10:45.535Z,25.31
2017-05-12T15:10:55.557Z,25.38
2017-05-12T15:11:05.577Z,25.35
2017-05-12T15:11:15.573Z,25.35
2017-05-12T15:11:25.580Z,25.37
2017-05-12T15:11:35.616Z,25.32
2017-05-12T15:11:45.612Z,25.35
2017-05-12T15:11:55.643Z,25.38
2017-05-12T15:12:05.657Z,25.31
2017-05-12T15:12:15.689Z,25.32
2017-05-12T15:12:25.659Z,25.32
2017-05-12T15:12:35.702Z,25.31
2017-05-12T15:12:45.697Z,25.41
2017-05-12T15:12:55.695Z,25.31
2017-05-12T15:13:05.727Z,25.34
2017-05-12T15:13:15.744Z,25.31
2017-05-12T15:13:25.774Z,25.35
2017-05-12T15:13:35.778Z,25.4
2017-05-12T15:13:45.775Z,25.38
2017-05-12T15:13:55.778Z,25.35
2017-05-12T15:14:05.821Z,25.35
2017-05-12T15:14:15.840Z,25.41
2017-05-12T15:14:25.856Z,25.37
2017-05-12T15:14:35.853Z,25.38
2017-05-12T15:14:45.874Z,25.37
2017-05-12T15:14:55.885Z,25.35
2017-05-12T15:15:05.882Z,25.34
2017-05-12T15:15:15.904Z,25.34
2017-05-12T15:15:25.932Z,25.3
2017-05-12T15:15:35.927Z,25.37
2017-05-12T15:15:45.936Z,25.31
2017-05-12T15:15:55.967Z,25.37
2017-05-12T15:16:05.986Z,25.35
2017-05-12T15:16:15.980Z,25.4
2017-05-12T15:16:26.027Z,25.35
2017-05-12T15:16:36.027Z,25.35
2017-05-12T15:16:46.014Z,25.37
2017-05-12T15:16:56.036Z,25.32
2017-05-12T15:17:06.056Z,25.32
2017-05-12T15:17:16.055Z,25.37
2017-05-12T15:17:26.076Z,25.35
2017-05-12T15:17:36.112Z,25.38
2017-05-12T15:17:46.156Z,25.34
2017-05-12T15:17:56.122Z,25.35
2017-05-12T15:18:06.153Z,25.38
2017-05-12T15:18:16.173Z,25.31